Time;durP1;ratioP1;P1;durP2;ratioP2;P2;SDS_P1;SDS_P2;PMS_P1;PMS_P2;Temp;Humidity;BMP_temperature;BMP_pressure;BME280_temperature;BME280_humidity;BME280_pressure;Samples;Min_cycle;Max_cycle;Signal;HPM_P1;HPM_P2
2022/05/27 00:09:23;;;;;;;1.70;1.20;;;;;;;23.69;39.70;100718.91;20794320;27;97740;-79
2022/05/27 00:19:23;;;;;;;2.35;1.20;;;;;;;23.68;40.11;100704.03;20790130;27;96947;-79
2022/05/27 00:29:24;;;;;;;2.88;1.20;;;;;;;23.65;40.32;100696.34;20783829;27;96977;-79
2022/05/27 00:39:24;;;;;;;2.42;1.30;;;;;;;23.65;40.27;100686.59;20783234;27;100139;-80
2022/05/27 00:49:26;;;;;;;1.75;1.02;;;;;;;23.67;40.35;100683.84;20777589;27;97066;-80
2022/05/27 00:59:27;;;;;;;;;;;;;;;23.65;40.42;100694.53;20799213;27;97185;-80
2022/05/27 01:09:29;;;;;;;1.20;1.10;;;;;;;23.56;40.85;100692.66;20794684;27;98976;-80
2022/05/27 01:20:18;;;;;;;3.60;1.10;;;;;;;23.57;40.78;100688.22;20777078;27;99526;-78
2022/05/27 01:30:22;;;;;;;3.05;1.17;;;;;;;23.53;40.67;100684.16;20775176;27;97507;-81
2022/05/27 01:40:28;;;;;;;1.33;1.05;;;;;;;23.47;40.71;100675.78;20797427;27;98144;-80
2022/05/27 01:51:02;;;;;;;1.27;1.00;;;;;;;23.46;40.66;100684.66;20782025;27;97818;-79
2022/05/27 02:01:07;;;;;;;1.40;1.17;;;;;;;23.40;40.55;100671.09;20792403;27;96908;-81
2022/05/27 02:11:19;;;;;;;2.65;1.00;;;;;;;23.38;40.67;100671.25;20795774;27;96946;-80
2022/05/27 02:21:23;;;;;;;;;;;;;;;23.33;40.78;100676.91;20793312;27;97683;-80
2022/05/27 02:31:32;;;;;;;1.00;0.90;;;;;;;23.30;40.81;100677.16;20793074;27;97095;-80
2022/05/27 02:41:57;;;;;;;3.95;1.13;;;;;;;23.25;40.88;100676.69;20776368;27;98594;-80
2022/05/27 02:52:12;;;;;;;1.40;1.08;;;;;;;23.23;40.86;100673.34;20790570;27;97723;-81
2022/05/27 03:02:16;;;;;;;11.02;1.52;;;;;;;23.14;41.21;100684.63;20790956;27;98676;-81
2022/05/27 03:12:31;;;;;;;2.85;1.20;;;;;;;23.11;41.30;100688.34;20796830;27;96808;-80
2022/05/27 03:22:53;;;;;;;2.75;1.10;;;;;;;23.07;41.52;100694.84;20785493;27;97067;-79
2022/05/27 03:33:03;;;;;;;2.85;1.20;;;;;;;23.03;41.77;100701.31;20782562;27;98957;-79
2022/05/27 03:43:04;;;;;;;1.38;1.15;;;;;;;23.00;41.78;100696.31;20771782;27;97148;-79
2022/05/27 03:53:05;;;;;;;3.03;1.40;;;;;;;22.93;42.03;100700.41;20784677;27;97680;-79
2022/05/27 04:03:06;;;;;;;3.17;1.30;;;;;;;22.94;41.81;100708.19;20774435;27;99757;-81
2022/05/27 04:13:07;;;;;;;1.42;1.30;;;;;;;22.94;42.09;100695.00;20777808;27;97396;-79
2022/05/27 04:23:11;;;;;;;4.17;1.20;;;;;;;22.90;42.20;100696.22;20799316;27;97186;-80
2022/05/27 04:33:12;;;;;;;6.50;1.30;;;;;;;22.91;41.59;100699.69;20756206;27;97484;-76
2022/05/27 04:43:14;;;;;;;2.25;1.10;;;;;;;22.92;41.20;100691.63;20774176;27;97243;-77
2022/05/27 04:53:14;;;;;;;2.35;1.15;;;;;;;22.89;40.42;100693.66;20802100;27;99561;-78
2022/05/27 05:03:16;;;;;;;2.53;0.90;;;;;;;22.85;39.68;100685.16;20777649;27;97118;-78
2022/05/27 05:13:16;;;;;;;3.03;0.90;;;;;;;22.77;38.26;100693.69;20777143;27;99843;-75
2022/05/27 05:23:17;;;;;;;5.90;0.80;;;;;;;22.74;37.64;100698.38;20757639;27;98033;-75
2022/05/27 05:33:18;;;;;;;1.45;0.82;;;;;;;22.75;36.91;100694.78;20766715;27;97592;-76
2022/05/27 05:43:18;;;;;;;4.07;1.00;;;;;;;22.76;36.16;100694.66;20761912;27;100432;-75
2022/05/27 05:53:19;;;;;;;3.00;0.83;;;;;;;22.75;36.26;100684.22;20645153;28;99491;-75
2022/05/27 06:03:20;;;;;;;1.40;0.93;;;;;;;22.77;35.57;100684.94;20642249;28;97095;-74
2022/05/27 06:13:23;;;;;;;1.67;1.13;;;;;;;22.78;36.04;100697.19;20630947;28;98531;-75
2022/05/27 06:23:27;;;;;;;1.13;1.00;;;;;;;22.79;36.66;100691.78;20651636;28;97030;-75
2022/05/27 06:43:48;;;;;;;2.20;1.00;;;;;;;22.85;36.69;100672.81;20635594;28;97728;-75
2022/05/27 06:53:49;;;;;;;1.70;1.00;;;;;;;22.91;37.21;100671.47;20799802;27;97558;-75
2022/05/27 07:03:49;;;;;;;1.30;0.90;;;;;;;22.95;37.42;100654.41;20810603;27;98138;-75
2022/05/27 07:13:50;;;;;;;1.38;0.60;;;;;;;23.01;37.03;100655.75;20811750;27;96964;-75
2022/05/27 07:23:52;;;;;;;3.33;0.65;;;;;;;23.03;36.67;100648.50;20809777;27;97052;-76
2022/05/27 07:33:53;;;;;;;4.27;0.60;;;;;;;23.09;37.33;100642.72;20804376;27;99595;-75
2022/05/27 07:43:55;;;;;;;2.72;0.60;;;;;;;23.13;36.71;100628.31;20813591;27;97374;-77
2022/05/27 07:53:56;;;;;;;1.63;0.63;;;;;;;23.25;37.04;100628.28;20794324;27;99289;-77
2022/05/27 08:03:56;;;;;;;2.38;0.70;;;;;;;23.33;36.49;100621.41;20818410;27;97512;-77
2022/05/27 08:13:58;;;;;;;3.28;0.80;;;;;;;23.41;36.51;100622.56;20819566;27;97966;-77
2022/05/27 08:23:59;;;;;;;1.58;0.60;;;;;;;23.53;36.30;100624.19;20815379;27;98934;-77
2022/05/27 08:44:30;;;;;;;2.47;0.77;;;;;;;23.74;36.72;100605.69;20809616;27;98558;-79
2022/05/27 08:54:42;;;;;;;2.75;0.95;;;;;;;23.81;36.68;100580.41;20828113;27;100194;-78
2022/05/27 09:04:52;;;;;;;1.77;0.90;;;;;;;23.90;36.56;100573.50;20823182;27;96869;-77
2022/05/27 09:15:13;;;;;;;1.63;0.70;;;;;;;23.97;36.53;100574.66;20823142;27;98346;-78
2022/05/27 09:25:28;;;;;;;4.57;0.73;;;;;;;24.06;36.53;100551.88;20831711;27;98846;-77
2022/05/27 09:35:48;;;;;;;4.70;0.88;;;;;;;24.16;35.55;100551.03;20825287;27;97919;-78
2022/05/27 09:46:30;;;;;;;2.05;0.80;;;;;;;24.22;35.68;100535.47;20833218;27;100199;-78
2022/05/27 09:56:40;;;;;;;2.47;0.88;;;;;;;24.32;35.29;100526.75;20799459;27;98116;-77
2022/05/27 10:06:41;;;;;;;2.17;0.95;;;;;;;24.42;36.54;100512.53;20799668;27;98792;-78
2022/05/27 10:16:58;;;;;;;1.07;0.80;;;;;;;24.58;35.57;100500.56;20797604;27;100460;-78
2022/05/27 10:27:04;;;;;;;4.90;0.95;;;;;;;24.75;35.92;100475.22;20745378;27;100703;-77
2022/05/27 10:37:17;;;;;;;3.25;0.98;;;;;;;24.92;35.87;100465.75;20756898;27;97754;-79
2022/05/27 10:47:52;;;;;;;3.13;0.70;;;;;;;25.04;35.82;100453.19;20785399;27;97947;-75
2022/05/27 11:09:03;;;;;;;1.27;0.90;;;;;;;25.21;35.30;100414.50;20777371;27;99897;-80
2022/05/27 11:19:16;;;;;;;5.35;0.88;;;;;;;25.26;36.11;100397.16;20781551;27;97746;-83
2022/05/27 11:29:31;;;;;;;4.43;1.02;;;;;;;25.32;36.05;100369.25;20780132;27;98090;-80
2022/05/27 11:39:58;;;;;;;1.52;0.90;;;;;;;25.36;35.03;100367.97;20779228;27;97850;-79
2022/05/27 11:50:38;;;;;;;3.80;1.20;;;;;;;25.41;35.54;100351.66;20762773;27;98637;-80
2022/05/27 12:00:59;;;;;;;0.90;0.90;;;;;;;25.50;35.75;100332.22;20745008;27;100332;-81
2022/05/27 12:11:23;;;;;;;1.98;1.10;;;;;;;25.60;35.32;100302.16;20797621;27;97632;-81
2022/05/27 12:21:28;;;;;;;3.85;1.23;;;;;;;25.63;35.44;100285.94;20791187;27;96989;-82
2022/05/27 12:31:31;;;;;;;2.55;1.05;;;;;;;25.72;35.54;100282.41;20816623;27;96919;-82
2022/05/27 12:41:41;;;;;;;1.80;1.10;;;;;;;25.74;35.30;100259.19;20822163;27;100295;-82
2022/05/27 12:51:45;;;;;;;4.25;1.10;;;;;;;25.85;35.55;100239.56;20796337;27;97137;-78
2022/05/27 13:01:45;;;;;;;3.42;0.90;;;;;;;25.87;35.59;100221.69;20820523;27;97158;-81
2022/05/27 13:11:46;;;;;;;2.72;1.10;;;;;;;25.91;35.77;100211.59;20811845;27;101968;-77
2022/05/27 13:21:56;;;;;;;9.47;1.23;;;;;;;25.89;35.69;100191.38;20800942;27;97209;-78
2022/05/27 13:32:15;;;;;;;3.97;0.90;;;;;;;25.93;36.25;100181.28;20782332;27;97366;-77
2022/05/27 13:42:35;;;;;;;2.17;1.00;;;;;;;25.94;35.75;100163.53;20809240;27;100258;-78
2022/05/27 13:52:37;;;;;;;1.02;0.90;;;;;;;25.92;35.71;100154.91;20793353;27;96976;-77
2022/05/27 14:02:47;;;;;;;5.22;1.40;;;;;;;25.97;35.53;100129.56;20803664;27;97803;-77
2022/05/27 14:12:48;;;;;;;3.40;1.10;;;;;;;25.98;35.36;100122.47;20801704;27;97335;-77
2022/05/27 14:22:50;;;;;;;;;;;;;;;25.97;35.64;100105.69;20791851;27;100121;-77
2022/05/27 14:32:52;;;;;;;0.90;0.90;;;;;;;25.94;35.48;100092.75;20805645;27;98721;-78
2022/05/27 14:42:52;;;;;;;5.55;1.20;;;;;;;25.96;35.75;100077.50;20801877;27;97638;-78
2022/05/27 14:53:04;;;;;;;2.67;1.57;;;;;;;26.08;36.00;100071.97;20635854;28;98349;-78
2022/05/27 15:03:26;;;;;;;4.25;1.08;;;;;;;26.15;35.93;100049.94;20631909;28;97854;-75
2022/05/27 15:13:30;;;;;;;3.38;1.00;;;;;;;26.17;35.96;100049.75;20632164;28;98653;-76
2022/05/27 15:23:34;;;;;;;3.25;1.30;;;;;;;26.24;36.24;100026.06;20605503;28;97688;-73
2022/05/27 15:34:00;;;;;;;3.80;1.20;;;;;;;26.30;35.94;100025.44;20603572;28;99992;-76
2022/05/27 15:44:00;;;;;;;4.07;1.05;;;;;;;26.29;35.63;100006.03;20633293;28;97118;-76
2022/05/27 15:54:02;;;;;;;2.20;1.17;;;;;;;26.43;35.79;99991.28;20788085;27;100342;-76
2022/05/27 16:04:02;;;;;;;2.15;1.13;;;;;;;26.56;36.02;99971.38;20781181;27;97978;-76
2022/05/27 16:14:03;;;;;;;3.50;1.40;;;;;;;26.52;37.36;99970.88;20798294;27;97736;-76
2022/05/27 16:24:03;;;;;;;2.00;1.35;;;;;;;26.48;37.10;99964.25;20776105;27;96957;-76
2022/05/27 16:34:05;;;;;;;1.30;1.20;;;;;;;26.41;36.23;99969.38;20806013;27;98743;-76
2022/05/27 16:44:07;;;;;;;4.60;1.10;;;;;;;26.33;35.93;99956.94;20788890;27;96952;-76
2022/05/27 16:54:07;;;;;;;3.08;1.27;;;;;;;26.32;35.98;99946.47;20809647;27;96792;-76
2022/05/27 17:04:08;;;;;;;1.73;1.30;;;;;;;26.30;36.28;99957.25;20800241;27;98482;-76
2022/05/27 17:14:10;;;;;;;1.60;1.10;;;;;;;26.28;36.47;99956.59;20775544;27;99687;-75
2022/05/27 17:24:12;;;;;;;2.28;1.13;;;;;;;26.26;35.93;99955.09;20812058;27;97067;-76
2022/05/27 17:34:14;;;;;;;1.05;0.93;;;;;;;26.20;36.06;99954.72;20803863;27;98366;-77
2022/05/27 17:44:14;;;;;;;7.10;1.40;;;;;;;26.17;36.80;99962.19;20793840;27;98123;-74
2022/05/27 17:54:15;;;;;;;2.35;1.10;;;;;;;26.10;36.37;99966.47;20785955;27;98080;-73
2022/05/27 18:04:17;;;;;;;3.33;1.40;;;;;;;25.97;36.47;99974.88;20807332;27;100365;-73
2022/05/27 18:14:18;;;;;;;1.95;1.35;;;;;;;25.86;36.90;99970.69;20804213;27;99181;-73
2022/05/27 18:24:18;;;;;;;2.63;1.00;;;;;;;25.74;37.29;99970.13;20815108;27;99058;-73
2022/05/27 18:34:19;;;;;;;2.85;1.40;;;;;;;25.66;37.28;99983.34;20812551;27;99133;-73
2022/05/27 18:44:20;;;;;;;5.03;1.07;;;;;;;25.55;37.33;99987.13;20811889;27;100204;-73
2022/05/27 18:54:20;;;;;;;5.85;1.20;;;;;;;25.48;36.94;99997.53;20801404;27;97286;-74
2022/05/27 19:04:24;;;;;;;6.68;1.00;;;;;;;25.44;37.42;99990.88;20790205;27;97930;-75
2022/05/27 19:14:25;;;;;;;1.88;1.10;;;;;;;25.39;36.73;100006.44;20769424;27;99576;-74
2022/05/27 19:24:29;;;;;;;3.27;1.60;;;;;;;25.35;36.74;99999.72;20794471;27;97259;-74
2022/05/27 19:34:30;;;;;;;3.42;1.33;;;;;;;25.33;37.14;99997.25;20775038;27;98331;-75
2022/05/27 19:44:30;;;;;;;4.33;1.33;;;;;;;25.35;37.40;100002.38;20793845;27;97197;-80
2022/05/27 19:54:32;;;;;;;3.33;1.48;;;;;;;25.34;37.68;100022.75;20784419;27;98991;-79
2022/05/27 20:14:54;;;;;;;4.03;1.50;;;;;;;25.31;38.03;100032.84;20783509;27;97864;-77
2022/05/27 20:24:55;;;;;;;4.17;1.60;;;;;;;25.31;38.12;100043.44;20811468;27;96883;-76
2022/05/27 20:34:55;;;;;;;4.47;1.60;;;;;;;25.31;37.96;100062.00;20776499;27;97992;-78
2022/05/27 20:45:00;;;;;;;2.58;1.50;;;;;;;25.29;38.36;100082.50;20760119;27;1263512;-79
2022/05/27 20:55:01;;;;;;;4.82;1.77;;;;;;;25.28;38.36;100099.38;20811154;27;98070;-79
2022/05/27 21:05:02;;;;;;;3.33;1.88;;;;;;;25.25;38.77;100106.69;20796278;27;99056;-79
2022/05/27 21:15:03;;;;;;;2.83;2.00;;;;;;;25.25;38.68;100103.19;20817683;27;97631;-79
2022/05/27 21:25:04;;;;;;;3.20;2.37;;;;;;;25.23;39.07;100129.84;20801498;27;97496;-79
2022/05/27 21:35:04;;;;;;;4.60;2.90;;;;;;;25.22;38.56;100125.50;20803518;27;96896;-80
2022/05/27 21:45:06;;;;;;;5.13;2.80;;;;;;;25.21;38.77;100157.47;20820561;27;97856;-80
2022/05/27 21:55:09;;;;;;;3.37;2.80;;;;;;;25.21;38.96;100162.78;20805369;27;97938;-79
2022/05/27 22:05:10;;;;;;;4.10;2.90;;;;;;;25.20;38.80;100169.06;20809097;27;97951;-80
2022/05/27 22:15:12;;;;;;;4.13;3.00;;;;;;;25.17;38.94;100169.34;20815112;27;98722;-77
2022/05/27 22:25:16;;;;;;;3.22;2.80;;;;;;;25.15;38.95;100184.56;20808704;27;96869;-76
2022/05/27 22:35:17;;;;;;;3.35;2.80;;;;;;;25.14;38.95;100181.06;20779019;27;98068;-77
2022/05/27 22:45:21;;;;;;;3.23;2.80;;;;;;;25.11;38.84;100173.44;20799214;27;97951;-77
2022/05/27 22:55:21;;;;;;;5.53;2.70;;;;;;;25.06;38.77;100155.34;20792433;27;98481;-76
2022/05/27 23:05:22;;;;;;;2.67;2.47;;;;;;;25.02;38.95;100142.53;20790246;27;97237;-77
2022/05/27 23:25:46;;;;;;;3.58;2.60;;;;;;;24.98;39.13;100147.31;20795794;27;99650;-77
2022/05/27 23:35:49;;;;;;;2.65;2.30;;;;;;;24.98;39.15;100154.44;20793502;27;98094;-77
2022/05/27 23:45:49;;;;;;;2.50;2.30;;;;;;;24.97;38.82;100187.19;20787731;27;97076;-77
2022/05/27 23:55:50;;;;;;;3.40;2.30;;;;;;;24.96;39.05;100172.28;20773145;27;97340;-77
